sensor_id;sensor_type;location;lat;lon;timestamp;temperature;humidity
23721;DHT22;42950;52.134;5.578;2024-02-16T00:00:48;12.00;99.90
23721;DHT22;42950;52.134;5.578;2024-02-16T00:03:13;12.00;99.90
23721;DHT22;42950;52.134;5.578;2024-02-16T00:05:39;12.00;99.90
23721;DHT22;42950;52.134;5.578;2024-02-16T00:08:05;12.00;99.90
23721;DHT22;42950;52.134;5.578;2024-02-16T00:10:30;12.00;99.90
23721;DHT22;42950;52.134;5.578;2024-02-16T00:12:56;12.00;99.90
23721;DHT22;42950;52.134;5.578;2024-02-16T00:15:22;11.90;99.90
23721;DHT22;42950;52.134;5.578;2024-02-16T00:17:48;11.90;99.90
23721;DHT22;42950;52.134;5.578;2024-02-16T00:20:14;11.90;99.90
23721;DHT22;42950;52.134;5.578;2024-02-16T00:22:40;11.90;99.90
23721;DHT22;42950;52.134;5.578;2024-02-16T00:25:06;11.90;99.90
23721;DHT22;42950;52.134;5.578;2024-02-16T00:27:32;11.90;99.90
23721;DHT22;42950;52.134;5.578;2024-02-16T00:29:57;11.90;99.90
23721;DHT22;42950;52.134;5.578;2024-02-16T00:32:23;11.90;99.90
23721;DHT22;42950;52.134;5.578;2024-02-16T00:34:51;11.80;99.90
23721;DHT22;42950;52.134;5.578;2024-02-16T00:37:19;11.80;99.90
23721;DHT22;42950;52.134;5.578;2024-02-16T00:39:44;11.80;99.90
23721;DHT22;42950;52.134;5.578;2024-02-16T00:42:10;11.80;99.90
23721;DHT22;42950;52.134;5.578;2024-02-16T00:44:36;11.80;99.90
23721;DHT22;42950;52.134;5.578;2024-02-16T00:47:02;11.80;99.90
23721;DHT22;42950;52.134;5.578;2024-02-16T00:49:31;11.80;99.90
23721;DHT22;42950;52.134;5.578;2024-02-16T00:51:57;11.70;99.90
23721;DHT22;42950;52.134;5.578;2024-02-16T00:54:22;11.70;99.90
23721;DHT22;42950;52.134;5.578;2024-02-16T00:56:48;11.70;99.90
23721;DHT22;42950;52.134;5.578;2024-02-16T00:59:14;11.70;99.90
23721;DHT22;42950;52.134;5.578;2024-02-16T01:01:39;11.70;99.90
23721;DHT22;42950;52.134;5.578;2024-02-16T01:04:05;11.70;99.90
23721;DHT22;42950;52.134;5.578;2024-02-16T01:06:32;11.70;99.90
23721;DHT22;42950;52.134;5.578;2024-02-16T01:08:58;11.70;99.90
23721;DHT22;42950;52.134;5.578;2024-02-16T01:11:24;11.60;99.90
23721;DHT22;42950;52.134;5.578;2024-02-16T01:13:49;11.60;99.90
23721;DHT22;42950;52.134;5.578;2024-02-16T01:16:15;11.60;99.90
23721;DHT22;42950;52.134;5.578;2024-02-16T01:18:44;11.60;99.90
23721;DHT22;42950;52.134;5.578;2024-02-16T01:21:10;11.50;99.90
23721;DHT22;42950;52.134;5.578;2024-02-16T01:23:36;11.50;99.90
23721;DHT22;42950;52.134;5.578;2024-02-16T01:26:01;11.50;99.90
23721;DHT22;42950;52.134;5.578;2024-02-16T01:28:27;11.50;99.90
23721;DHT22;42950;52.134;5.578;2024-02-16T01:30:52;11.50;99.90
23721;DHT22;42950;52.134;5.578;2024-02-16T01:33:19;11.50;99.90
23721;DHT22;42950;52.134;5.578;2024-02-16T01:35:45;11.40;99.90
23721;DHT22;42950;52.134;5.578;2024-02-16T01:38:11;11.40;99.90
23721;DHT22;42950;52.134;5.578;2024-02-16T01:40:37;11.40;99.90
23721;DHT22;42950;52.134;5.578;2024-02-16T01:43:02;11.30;99.90
23721;DHT22;42950;52.134;5.578;2024-02-16T01:45:28;11.30;99.90
23721;DHT22;42950;52.134;5.578;2024-02-16T01:47:54;11.30;99.90
23721;DHT22;42950;52.134;5.578;2024-02-16T01:50:21;11.30;99.90
23721;DHT22;42950;52.134;5.578;2024-02-16T01:52:48;11.30;99.90
23721;DHT22;42950;52.134;5.578;2024-02-16T01:55:15;11.30;99.90
23721;DHT22;42950;52.134;5.578;2024-02-16T01:57:43;11.20;99.90
23721;DHT22;42950;52.134;5.578;2024-02-16T02:00:10;11.20;99.90
23721;DHT22;42950;52.134;5.578;2024-02-16T02:02:36;11.20;99.90
23721;DHT22;42950;52.134;5.578;2024-02-16T02:05:02;11.20;99.90
23721;DHT22;42950;52.134;5.578;2024-02-16T02:07:29;11.20;99.90
23721;DHT22;42950;52.134;5.578;2024-02-16T02:09:55;11.20;99.90
23721;DHT22;42950;52.134;5.578;2024-02-16T02:12:22;11.20;99.90
23721;DHT22;42950;52.134;5.578;2024-02-16T02:14:48;11.20;99.90
23721;DHT22;42950;52.134;5.578;2024-02-16T02:17:14;11.10;99.90
23721;DHT22;42950;52.134;5.578;2024-02-16T02:19:40;11.10;99.90
23721;DHT22;42950;52.134;5.578;2024-02-16T02:22:14;11.10;99.90
23721;DHT22;42950;52.134;5.578;2024-02-16T02:24:39;11.10;99.90
23721;DHT22;42950;52.134;5.578;2024-02-16T02:27:05;11.20;99.90
23721;DHT22;42950;52.134;5.578;2024-02-16T02:29:30;11.20;99.90
23721;DHT22;42950;52.134;5.578;2024-02-16T02:31:56;11.20;99.90
23721;DHT22;42950;52.134;5.578;2024-02-16T02:34:22;11.20;99.90
23721;DHT22;42950;52.134;5.578;2024-02-16T02:36:47;11.20;99.90
23721;DHT22;42950;52.134;5.578;2024-02-16T02:39:14;11.20;99.90
23721;DHT22;42950;52.134;5.578;2024-02-16T02:41:39;11.20;99.90
23721;DHT22;42950;52.134;5.578;2024-02-16T02:44:05;11.20;99.90
23721;DHT22;42950;52.134;5.578;2024-02-16T02:46:31;11.20;99.90
23721;DHT22;42950;52.134;5.578;2024-02-16T02:48:56;11.20;99.90
23721;DHT22;42950;52.134;5.578;2024-02-16T02:51:22;11.20;99.90
23721;DHT22;42950;52.134;5.578;2024-02-16T02:53:47;11.20;99.90
23721;DHT22;42950;52.134;5.578;2024-02-16T02:56:13;11.20;99.90
23721;DHT22;42950;52.134;5.578;2024-02-16T02:58:41;11.20;99.90
23721;DHT22;42950;52.134;5.578;2024-02-16T03:01:07;11.20;99.90
23721;DHT22;42950;52.134;5.578;2024-02-16T03:03:33;11.20;99.90
23721;DHT22;42950;52.134;5.578;2024-02-16T03:05:59;11.20;99.90
23721;DHT22;42950;52.134;5.578;2024-02-16T03:08:25;11.20;99.90
23721;DHT22;42950;52.134;5.578;2024-02-16T03:10:51;11.20;99.90
23721;DHT22;42950;52.134;5.578;2024-02-16T03:13:17;11.20;99.90
23721;DHT22;42950;52.134;5.578;2024-02-16T03:15:44;11.20;99.90
23721;DHT22;42950;52.134;5.578;2024-02-16T03:18:10;11.20;99.90
23721;DHT22;42950;52.134;5.578;2024-02-16T03:20:36;11.20;99.90
23721;DHT22;42950;52.134;5.578;2024-02-16T03:23:02;11.20;99.90
23721;DHT22;42950;52.134;5.578;2024-02-16T03:25:28;11.20;99.90
23721;DHT22;42950;52.134;5.578;2024-02-16T03:27:54;11.20;99.90
23721;DHT22;42950;52.134;5.578;2024-02-16T03:30:20;11.20;99.90
23721;DHT22;42950;52.134;5.578;2024-02-16T03:32:51;11.10;99.90
23721;DHT22;42950;52.134;5.578;2024-02-16T03:35:18;11.10;99.90
23721;DHT22;42950;52.134;5.578;2024-02-16T03:37:44;11.20;99.90
23721;DHT22;42950;52.134;5.578;2024-02-16T03:40:11;11.20;99.90
23721;DHT22;42950;52.134;5.578;2024-02-16T03:42:38;11.10;99.90
23721;DHT22;42950;52.134;5.578;2024-02-16T03:45:05;11.10;99.90
23721;DHT22;42950;52.134;5.578;2024-02-16T03:47:30;11.10;99.90
23721;DHT22;42950;52.134;5.578;2024-02-16T03:49:56;11.10;99.90
23721;DHT22;42950;52.134;5.578;2024-02-16T03:52:21;11.10;99.90
23721;DHT22;42950;52.134;5.578;2024-02-16T03:54:47;11.10;99.90
23721;DHT22;42950;52.134;5.578;2024-02-16T03:57:15;11.00;99.90
23721;DHT22;42950;52.134;5.578;2024-02-16T03:59:42;11.00;99.90
23721;DHT22;42950;52.134;5.578;2024-02-16T04:02:09;11.00;99.90
23721;DHT22;42950;52.134;5.578;2024-02-16T04:04:35;11.00;99.90
23721;DHT22;42950;52.134;5.578;2024-02-16T04:07:01;11.00;99.90
23721;DHT22;42950;52.134;5.578;2024-02-16T04:09:26;11.00;99.90
23721;DHT22;42950;52.134;5.578;2024-02-16T04:11:52;11.00;99.90
23721;DHT22;42950;52.134;5.578;2024-02-16T04:14:18;11.00;99.90
23721;DHT22;42950;52.134;5.578;2024-02-16T04:16:44;10.90;99.90
23721;DHT22;42950;52.134;5.578;2024-02-16T04:19:10;11.00;99.90
23721;DHT22;42950;52.134;5.578;2024-02-16T04:21:35;10.90;99.90
23721;DHT22;42950;52.134;5.578;2024-02-16T04:24:01;10.90;99.90
23721;DHT22;42950;52.134;5.578;2024-02-16T04:26:26;10.90;99.90
23721;DHT22;42950;52.134;5.578;2024-02-16T04:28:52;10.90;99.90
23721;DHT22;42950;52.134;5.578;2024-02-16T04:31:17;10.90;99.90
23721;DHT22;42950;52.134;5.578;2024-02-16T04:33:43;10.90;99.90
23721;DHT22;42950;52.134;5.578;2024-02-16T04:36:08;10.90;99.90
23721;DHT22;42950;52.134;5.578;2024-02-16T04:38:34;10.90;99.90
23721;DHT22;42950;52.134;5.578;2024-02-16T04:41:00;10.90;99.90
23721;DHT22;42950;52.134;5.578;2024-02-16T04:43:25;10.90;99.90
23721;DHT22;42950;52.134;5.578;2024-02-16T04:45:51;10.90;99.90
23721;DHT22;42950;52.134;5.578;2024-02-16T04:48:16;10.90;99.90
23721;DHT22;42950;52.134;5.578;2024-02-16T04:50:42;10.90;99.90
23721;DHT22;42950;52.134;5.578;2024-02-16T04:53:07;10.90;99.90
23721;DHT22;42950;52.134;5.578;2024-02-16T04:55:33;10.80;99.90
23721;DHT22;42950;52.134;5.578;2024-02-16T04:57:59;10.90;99.90
23721;DHT22;42950;52.134;5.578;2024-02-16T05:00:25;10.90;99.90
23721;DHT22;42950;52.134;5.578;2024-02-16T05:02:51;10.80;99.90
23721;DHT22;42950;52.134;5.578;2024-02-16T05:05:18;10.80;99.90
23721;DHT22;42950;52.134;5.578;2024-02-16T05:07:48;10.90;99.90
23721;DHT22;42950;52.134;5.578;2024-02-16T05:10:14;10.90;99.90
23721;DHT22;42950;52.134;5.578;2024-02-16T05:12:39;10.90;99.90
23721;DHT22;42950;52.134;5.578;2024-02-16T05:15:07;10.90;99.90
23721;DHT22;42950;52.134;5.578;2024-02-16T05:17:33;10.90;99.90
23721;DHT22;42950;52.134;5.578;2024-02-16T05:19:59;11.00;99.90
23721;DHT22;42950;52.134;5.578;2024-02-16T05:22:24;11.00;99.90
23721;DHT22;42950;52.134;5.578;2024-02-16T05:24:50;11.00;99.90
23721;DHT22;42950;52.134;5.578;2024-02-16T05:27:15;11.00;99.90
23721;DHT22;42950;52.134;5.578;2024-02-16T05:29:42;11.00;99.90
23721;DHT22;42950;52.134;5.578;2024-02-16T05:32:07;11.00;99.90
23721;DHT22;42950;52.134;5.578;2024-02-16T05:34:33;11.00;99.90
23721;DHT22;42950;52.134;5.578;2024-02-16T05:37:06;11.10;99.90
23721;DHT22;42950;52.134;5.578;2024-02-16T05:39:33;11.10;99.90
23721;DHT22;42950;52.134;5.578;2024-02-16T05:42:01;11.10;99.90
23721;DHT22;42950;52.134;5.578;2024-02-16T05:44:27;11.10;99.90
23721;DHT22;42950;52.134;5.578;2024-02-16T05:46:53;11.10;99.90
23721;DHT22;42950;52.134;5.578;2024-02-16T05:49:18;11.20;99.90
23721;DHT22;42950;52.134;5.578;2024-02-16T05:51:45;11.30;99.90
23721;DHT22;42950;52.134;5.578;2024-02-16T05:54:30;11.30;99.90
23721;DHT22;42950;52.134;5.578;2024-02-16T05:56:57;11.30;99.90
23721;DHT22;42950;52.134;5.578;2024-02-16T05:59:22;11.30;99.90
23721;DHT22;42950;52.134;5.578;2024-02-16T06:01:50;11.40;99.90
23721;DHT22;42950;52.134;5.578;2024-02-16T06:04:16;11.40;99.90
23721;DHT22;42950;52.134;5.578;2024-02-16T06:06:42;11.40;99.90
23721;DHT22;42950;52.134;5.578;2024-02-16T06:09:07;11.50;99.90
23721;DHT22;42950;52.134;5.578;2024-02-16T06:11:33;11.50;99.90
23721;DHT22;42950;52.134;5.578;2024-02-16T06:13:58;11.60;99.90
23721;DHT22;42950;52.134;5.578;2024-02-16T06:16:24;11.60;99.90
23721;DHT22;42950;52.134;5.578;2024-02-16T06:18:49;11.60;99.90
23721;DHT22;42950;52.134;5.578;2024-02-16T06:21:15;11.60;99.90
23721;DHT22;42950;52.134;5.578;2024-02-16T06:23:41;11.60;99.90
23721;DHT22;42950;52.134;5.578;2024-02-16T06:26:07;11.60;99.90
23721;DHT22;42950;52.134;5.578;2024-02-16T06:28:32;11.60;99.90
23721;DHT22;42950;52.134;5.578;2024-02-16T06:30:58;11.70;99.90
23721;DHT22;42950;52.134;5.578;2024-02-16T06:33:23;11.70;99.90
23721;DHT22;42950;52.134;5.578;2024-02-16T06:35:49;11.70;99.90
23721;DHT22;42950;52.134;5.578;2024-02-16T06:38:15;11.80;99.90
23721;DHT22;42950;52.134;5.578;2024-02-16T06:40:41;11.80;99.90
23721;DHT22;42950;52.134;5.578;2024-02-16T06:43:06;11.90;99.90
23721;DHT22;42950;52.134;5.578;2024-02-16T06:45:32;11.90;99.90
23721;DHT22;42950;52.134;5.578;2024-02-16T06:47:57;11.90;99.90
23721;DHT22;42950;52.134;5.578;2024-02-16T06:50:25;11.90;99.90
23721;DHT22;42950;52.134;5.578;2024-02-16T06:52:51;11.90;99.90
23721;DHT22;42950;52.134;5.578;2024-02-16T06:55:16;11.90;99.90
23721;DHT22;42950;52.134;5.578;2024-02-16T06:57:42;11.90;99.90
23721;DHT22;42950;52.134;5.578;2024-02-16T07:00:09;11.90;99.90
23721;DHT22;42950;52.134;5.578;2024-02-16T07:02:35;11.90;99.90
23721;DHT22;42950;52.134;5.578;2024-02-16T07:05:01;11.90;99.90
23721;DHT22;42950;52.134;5.578;2024-02-16T07:07:28;11.90;99.90
23721;DHT22;42950;52.134;5.578;2024-02-16T07:09:53;11.90;99.90
23721;DHT22;42950;52.134;5.578;2024-02-16T07:12:20;11.90;99.90
23721;DHT22;42950;52.134;5.578;2024-02-16T07:14:47;11.90;99.90
23721;DHT22;42950;52.134;5.578;2024-02-16T07:17:15;11.90;99.90
23721;DHT22;42950;52.134;5.578;2024-02-16T07:19:40;11.90;99.90
23721;DHT22;42950;52.134;5.578;2024-02-16T07:22:06;12.00;99.90
23721;DHT22;42950;52.134;5.578;2024-02-16T07:24:32;12.00;99.90
23721;DHT22;42950;52.134;5.578;2024-02-16T07:26:58;12.00;99.90
23721;DHT22;42950;52.134;5.578;2024-02-16T07:29:24;12.00;99.90
23721;DHT22;42950;52.134;5.578;2024-02-16T07:31:50;12.00;99.90
23721;DHT22;42950;52.134;5.578;2024-02-16T07:34:17;12.10;99.90
23721;DHT22;42950;52.134;5.578;2024-02-16T07:36:43;12.10;99.90
23721;DHT22;42950;52.134;5.578;2024-02-16T07:39:09;12.10;99.90
23721;DHT22;42950;52.134;5.578;2024-02-16T07:41:37;12.10;99.90
23721;DHT22;42950;52.134;5.578;2024-02-16T07:44:03;12.10;99.90
23721;DHT22;42950;52.134;5.578;2024-02-16T07:46:29;12.10;99.90
23721;DHT22;42950;52.134;5.578;2024-02-16T07:48:54;12.10;99.90
23721;DHT22;42950;52.134;5.578;2024-02-16T07:51:20;12.10;99.90
23721;DHT22;42950;52.134;5.578;2024-02-16T07:53:46;12.10;99.90
23721;DHT22;42950;52.134;5.578;2024-02-16T07:56:12;12.10;99.90
23721;DHT22;42950;52.134;5.578;2024-02-16T07:58:41;12.10;99.90
23721;DHT22;42950;52.134;5.578;2024-02-16T08:01:08;12.10;99.90
23721;DHT22;42950;52.134;5.578;2024-02-16T08:03:36;12.20;99.90
23721;DHT22;42950;52.134;5.578;2024-02-16T08:06:02;12.20;99.90
23721;DHT22;42950;52.134;5.578;2024-02-16T08:08:27;12.20;99.90
23721;DHT22;42950;52.134;5.578;2024-02-16T08:10:53;12.20;99.90
23721;DHT22;42950;52.134;5.578;2024-02-16T08:13:18;12.20;99.90
23721;DHT22;42950;52.134;5.578;2024-02-16T08:15:46;12.20;99.90
23721;DHT22;42950;52.134;5.578;2024-02-16T08:18:12;12.30;99.90
23721;DHT22;42950;52.134;5.578;2024-02-16T08:20:38;12.30;99.90
23721;DHT22;42950;52.134;5.578;2024-02-16T08:23:04;12.40;99.90
23721;DHT22;42950;52.134;5.578;2024-02-16T08:25:30;12.30;99.90
23721;DHT22;42950;52.134;5.578;2024-02-16T08:27:56;12.40;99.90
23721;DHT22;42950;52.134;5.578;2024-02-16T08:30:21;12.40;99.90
23721;DHT22;42950;52.134;5.578;2024-02-16T08:32:47;12.50;99.90
23721;DHT22;42950;52.134;5.578;2024-02-16T08:35:13;12.50;99.90
23721;DHT22;42950;52.134;5.578;2024-02-16T08:37:40;12.60;99.90
23721;DHT22;42950;52.134;5.578;2024-02-16T08:40:06;12.60;99.90
23721;DHT22;42950;52.134;5.578;2024-02-16T08:42:32;12.70;99.90
23721;DHT22;42950;52.134;5.578;2024-02-16T08:44:57;12.70;99.90
23721;DHT22;42950;52.134;5.578;2024-02-16T08:47:26;12.80;99.90
23721;DHT22;42950;52.134;5.578;2024-02-16T08:49:51;12.90;99.90
23721;DHT22;42950;52.134;5.578;2024-02-16T08:52:18;12.90;99.90
23721;DHT22;42950;52.134;5.578;2024-02-16T08:54:44;12.90;99.90
23721;DHT22;42950;52.134;5.578;2024-02-16T08:57:09;13.00;99.90
23721;DHT22;42950;52.134;5.578;2024-02-16T08:59:37;13.00;99.90
23721;DHT22;42950;52.134;5.578;2024-02-16T09:02:02;13.00;99.90
23721;DHT22;42950;52.134;5.578;2024-02-16T09:04:28;13.10;99.90
23721;DHT22;42950;52.134;5.578;2024-02-16T09:06:55;13.20;99.90
23721;DHT22;42950;52.134;5.578;2024-02-16T09:09:21;13.30;99.90
23721;DHT22;42950;52.134;5.578;2024-02-16T09:11:46;13.30;99.90
23721;DHT22;42950;52.134;5.578;2024-02-16T09:14:12;13.40;99.90
23721;DHT22;42950;52.134;5.578;2024-02-16T09:16:38;13.50;99.90
23721;DHT22;42950;52.134;5.578;2024-02-16T09:19:03;13.60;99.90
23721;DHT22;42950;52.134;5.578;2024-02-16T09:21:30;13.60;99.90
23721;DHT22;42950;52.134;5.578;2024-02-16T09:23:56;13.60;99.90
23721;DHT22;42950;52.134;5.578;2024-02-16T09:26:27;13.60;99.90
23721;DHT22;42950;52.134;5.578;2024-02-16T09:28:56;13.60;99.90
23721;DHT22;42950;52.134;5.578;2024-02-16T09:31:22;13.60;99.90
23721;DHT22;42950;52.134;5.578;2024-02-16T09:33:48;13.50;99.90
23721;DHT22;42950;52.134;5.578;2024-02-16T09:36:14;13.50;99.90
23721;DHT22;42950;52.134;5.578;2024-02-16T09:38:39;13.40;99.90
23721;DHT22;42950;52.134;5.578;2024-02-16T09:41:05;13.30;99.90
23721;DHT22;42950;52.134;5.578;2024-02-16T09:43:31;13.20;99.90
23721;DHT22;42950;52.134;5.578;2024-02-16T09:45:58;13.20;99.90
23721;DHT22;42950;52.134;5.578;2024-02-16T09:48:26;13.30;99.90
23721;DHT22;42950;52.134;5.578;2024-02-16T09:50:57;13.20;99.90
23721;DHT22;42950;52.134;5.578;2024-02-16T09:53:25;13.20;99.90
23721;DHT22;42950;52.134;5.578;2024-02-16T09:55:52;13.20;99.90
23721;DHT22;42950;52.134;5.578;2024-02-16T09:58:18;13.20;99.90
23721;DHT22;42950;52.134;5.578;2024-02-16T10:00:51;13.20;99.90
